sensor_id;sensor_type;location;lat;lon;timestamp;temperature;humidity
10304;DHT22;5197;48.152;8.590;2024-01-30T00:00:47;3.30;7.80
10304;DHT22;5197;48.152;8.590;2024-01-30T00:03:16;3.40;7.80
10304;DHT22;5197;48.152;8.590;2024-01-30T00:05:43;3.40;7.80
10304;DHT22;5197;48.152;8.590;2024-01-30T00:08:10;3.40;7.70
10304;DHT22;5197;48.152;8.590;2024-01-30T00:10:38;3.40;7.70
10304;DHT22;5197;48.152;8.590;2024-01-30T00:13:05;3.40;7.60
10304;DHT22;5197;48.152;8.590;2024-01-30T00:15:32;3.50;7.60
10304;DHT22;5197;48.152;8.590;2024-01-30T00:18:00;3.40;7.60
10304;DHT22;5197;48.152;8.590;2024-01-30T00:20:27;3.50;8.90
10304;DHT22;5197;48.152;8.590;2024-01-30T00:22:53;3.50;8.00
10304;DHT22;5197;48.152;8.590;2024-01-30T00:25:20;3.50;8.10
10304;DHT22;5197;48.152;8.590;2024-01-30T00:27:48;3.50;8.00
10304;DHT22;5197;48.152;8.590;2024-01-30T00:30:15;3.50;8.00
10304;DHT22;5197;48.152;8.590;2024-01-30T00:32:42;3.50;8.00
10304;DHT22;5197;48.152;8.590;2024-01-30T00:35:09;3.60;8.00
10304;DHT22;5197;48.152;8.590;2024-01-30T00:37:37;3.60;7.90
10304;DHT22;5197;48.152;8.590;2024-01-30T00:40:05;3.60;7.70
10304;DHT22;5197;48.152;8.590;2024-01-30T00:42:33;3.50;7.50
10304;DHT22;5197;48.152;8.590;2024-01-30T00:45:00;3.50;7.60
10304;DHT22;5197;48.152;8.590;2024-01-30T00:47:27;3.50;7.50
10304;DHT22;5197;48.152;8.590;2024-01-30T00:49:55;3.50;7.70
10304;DHT22;5197;48.152;8.590;2024-01-30T00:52:23;3.40;7.50
10304;DHT22;5197;48.152;8.590;2024-01-30T00:54:50;3.50;7.60
10304;DHT22;5197;48.152;8.590;2024-01-30T00:57:17;3.40;7.50
10304;DHT22;5197;48.152;8.590;2024-01-30T00:59:44;3.40;7.50
10304;DHT22;5197;48.152;8.590;2024-01-30T01:02:11;3.40;7.60
10304;DHT22;5197;48.152;8.590;2024-01-30T01:04:38;3.30;7.50
10304;DHT22;5197;48.152;8.590;2024-01-30T01:07:05;3.30;7.40
10304;DHT22;5197;48.152;8.590;2024-01-30T01:09:33;3.30;7.40
10304;DHT22;5197;48.152;8.590;2024-01-30T01:12:00;3.30;7.60
10304;DHT22;5197;48.152;8.590;2024-01-30T01:14:26;3.30;7.60
10304;DHT22;5197;48.152;8.590;2024-01-30T01:16:54;3.30;7.60
10304;DHT22;5197;48.152;8.590;2024-01-30T01:19:21;3.30;7.60
10304;DHT22;5197;48.152;8.590;2024-01-30T01:21:48;3.30;7.50
10304;DHT22;5197;48.152;8.590;2024-01-30T01:24:16;3.20;7.50
10304;DHT22;5197;48.152;8.590;2024-01-30T01:26:43;3.20;7.50
10304;DHT22;5197;48.152;8.590;2024-01-30T01:29:10;3.20;7.50
10304;DHT22;5197;48.152;8.590;2024-01-30T01:31:39;3.20;7.40
10304;DHT22;5197;48.152;8.590;2024-01-30T01:34:11;3.20;7.40
10304;DHT22;5197;48.152;8.590;2024-01-30T01:36:39;3.20;7.60
10304;DHT22;5197;48.152;8.590;2024-01-30T01:39:07;3.20;7.60
10304;DHT22;5197;48.152;8.590;2024-01-30T01:41:35;3.20;7.50
10304;DHT22;5197;48.152;8.590;2024-01-30T01:44:02;3.20;7.50
10304;DHT22;5197;48.152;8.590;2024-01-30T01:46:32;3.30;7.60
10304;DHT22;5197;48.152;8.590;2024-01-30T01:49:00;3.30;7.60
10304;DHT22;5197;48.152;8.590;2024-01-30T01:51:29;3.40;7.80
10304;DHT22;5197;48.152;8.590;2024-01-30T01:53:59;3.50;7.80
10304;DHT22;5197;48.152;8.590;2024-01-30T01:56:27;3.60;7.50
10304;DHT22;5197;48.152;8.590;2024-01-30T01:58:55;3.60;7.20
10304;DHT22;5197;48.152;8.590;2024-01-30T02:01:23;3.70;8.10
10304;DHT22;5197;48.152;8.590;2024-01-30T02:03:52;3.70;6.70
10304;DHT22;5197;48.152;8.590;2024-01-30T02:06:19;3.70;6.60
10304;DHT22;5197;48.152;8.590;2024-01-30T02:08:46;3.70;6.30
10304;DHT22;5197;48.152;8.590;2024-01-30T02:11:13;3.70;6.10
10304;DHT22;5197;48.152;8.590;2024-01-30T02:13:41;3.70;6.10
10304;DHT22;5197;48.152;8.590;2024-01-30T02:16:08;3.70;6.10
10304;DHT22;5197;48.152;8.590;2024-01-30T02:18:35;3.70;6.10
10304;DHT22;5197;48.152;8.590;2024-01-30T02:21:05;3.70;6.10
10304;DHT22;5197;48.152;8.590;2024-01-30T02:23:33;3.70;6.10
10304;DHT22;5197;48.152;8.590;2024-01-30T02:26:01;3.60;6.00
10304;DHT22;5197;48.152;8.590;2024-01-30T02:28:28;3.70;6.00
10304;DHT22;5197;48.152;8.590;2024-01-30T02:30:55;3.60;6.00
10304;DHT22;5197;48.152;8.590;2024-01-30T02:33:22;3.60;6.00
10304;DHT22;5197;48.152;8.590;2024-01-30T02:35:52;3.60;6.00
10304;DHT22;5197;48.152;8.590;2024-01-30T02:38:19;3.60;6.00
10304;DHT22;5197;48.152;8.590;2024-01-30T02:40:46;3.60;5.90
10304;DHT22;5197;48.152;8.590;2024-01-30T02:43:13;3.60;5.70
10304;DHT22;5197;48.152;8.590;2024-01-30T02:45:40;3.60;5.70
10304;DHT22;5197;48.152;8.590;2024-01-30T02:48:07;3.60;5.60
10304;DHT22;5197;48.152;8.590;2024-01-30T02:50:35;3.70;5.50
10304;DHT22;5197;48.152;8.590;2024-01-30T02:53:02;3.70;5.40
10304;DHT22;5197;48.152;8.590;2024-01-30T02:55:29;3.70;5.10
10304;DHT22;5197;48.152;8.590;2024-01-30T02:57:56;3.70;5.00
10304;DHT22;5197;48.152;8.590;2024-01-30T03:00:23;3.70;4.80
10304;DHT22;5197;48.152;8.590;2024-01-30T03:02:51;3.70;4.60
10304;DHT22;5197;48.152;8.590;2024-01-30T03:05:18;3.70;4.50
10304;DHT22;5197;48.152;8.590;2024-01-30T03:07:45;3.70;4.40
10304;DHT22;5197;48.152;8.590;2024-01-30T03:10:12;3.70;4.40
10304;DHT22;5197;48.152;8.590;2024-01-30T03:12:39;3.70;4.30
10304;DHT22;5197;48.152;8.590;2024-01-30T03:15:07;3.70;4.30
10304;DHT22;5197;48.152;8.590;2024-01-30T03:17:34;3.70;4.40
10304;DHT22;5197;48.152;8.590;2024-01-30T03:20:01;3.70;4.50
10304;DHT22;5197;48.152;8.590;2024-01-30T03:22:28;3.70;4.50
10304;DHT22;5197;48.152;8.590;2024-01-30T03:24:55;3.70;4.40
10304;DHT22;5197;48.152;8.590;2024-01-30T03:27:22;3.70;4.50
10304;DHT22;5197;48.152;8.590;2024-01-30T03:29:49;3.70;4.40
10304;DHT22;5197;48.152;8.590;2024-01-30T03:32:16;3.70;4.50
10304;DHT22;5197;48.152;8.590;2024-01-30T03:34:43;3.70;4.50
10304;DHT22;5197;48.152;8.590;2024-01-30T03:37:10;3.70;4.60
10304;DHT22;5197;48.152;8.590;2024-01-30T03:39:37;3.70;4.70
10304;DHT22;5197;48.152;8.590;2024-01-30T03:42:04;3.70;4.90
10304;DHT22;5197;48.152;8.590;2024-01-30T03:44:31;3.70;5.10
10304;DHT22;5197;48.152;8.590;2024-01-30T03:46:58;3.70;5.20
10304;DHT22;5197;48.152;8.590;2024-01-30T03:49:25;3.70;5.20
10304;DHT22;5197;48.152;8.590;2024-01-30T03:51:52;3.70;5.40
10304;DHT22;5197;48.152;8.590;2024-01-30T03:54:19;3.70;5.40
10304;DHT22;5197;48.152;8.590;2024-01-30T03:56:47;3.70;5.50
10304;DHT22;5197;48.152;8.590;2024-01-30T03:59:14;3.70;5.70
10304;DHT22;5197;48.152;8.590;2024-01-30T04:01:41;3.70;5.80
10304;DHT22;5197;48.152;8.590;2024-01-30T04:04:08;3.70;5.90
10304;DHT22;5197;48.152;8.590;2024-01-30T04:06:35;3.70;6.10
10304;DHT22;5197;48.152;8.590;2024-01-30T04:09:02;3.70;6.00
10304;DHT22;5197;48.152;8.590;2024-01-30T04:11:30;3.60;6.00
10304;DHT22;5197;48.152;8.590;2024-01-30T04:13:57;3.60;6.10
10304;DHT22;5197;48.152;8.590;2024-01-30T04:16:25;3.60;6.00
10304;DHT22;5197;48.152;8.590;2024-01-30T04:18:52;3.60;6.00
10304;DHT22;5197;48.152;8.590;2024-01-30T04:21:21;3.60;6.20
10304;DHT22;5197;48.152;8.590;2024-01-30T04:23:48;3.60;6.30
10304;DHT22;5197;48.152;8.590;2024-01-30T04:26:15;3.50;6.30
10304;DHT22;5197;48.152;8.590;2024-01-30T04:28:44;3.50;6.40
10304;DHT22;5197;48.152;8.590;2024-01-30T04:31:11;3.50;6.50
10304;DHT22;5197;48.152;8.590;2024-01-30T04:33:38;3.50;6.70
10304;DHT22;5197;48.152;8.590;2024-01-30T04:36:08;3.50;6.90
10304;DHT22;5197;48.152;8.590;2024-01-30T04:38:37;3.40;7.00
10304;DHT22;5197;48.152;8.590;2024-01-30T04:41:05;3.40;7.20
10304;DHT22;5197;48.152;8.590;2024-01-30T04:43:32;3.40;7.30
10304;DHT22;5197;48.152;8.590;2024-01-30T04:45:59;3.40;7.50
10304;DHT22;5197;48.152;8.590;2024-01-30T04:48:26;3.40;7.70
10304;DHT22;5197;48.152;8.590;2024-01-30T04:50:53;3.50;7.90
10304;DHT22;5197;48.152;8.590;2024-01-30T04:53:20;3.50;8.00
10304;DHT22;5197;48.152;8.590;2024-01-30T04:55:47;3.50;7.90
10304;DHT22;5197;48.152;8.590;2024-01-30T04:58:14;3.50;8.10
10304;DHT22;5197;48.152;8.590;2024-01-30T05:00:41;3.50;8.10
10304;DHT22;5197;48.152;8.590;2024-01-30T05:03:08;3.50;8.30
10304;DHT22;5197;48.152;8.590;2024-01-30T05:05:35;3.50;8.40
10304;DHT22;5197;48.152;8.590;2024-01-30T05:08:02;3.50;8.60
10304;DHT22;5197;48.152;8.590;2024-01-30T05:10:29;3.50;8.70
10304;DHT22;5197;48.152;8.590;2024-01-30T05:12:56;3.50;9.20
10304;DHT22;5197;48.152;8.590;2024-01-30T05:15:23;3.60;9.40
10304;DHT22;5197;48.152;8.590;2024-01-30T05:17:50;3.60;9.30
10304;DHT22;5197;48.152;8.590;2024-01-30T05:20:17;3.70;10.20
10304;DHT22;5197;48.152;8.590;2024-01-30T05:22:44;3.70;9.10
10304;DHT22;5197;48.152;8.590;2024-01-30T05:25:13;3.60;9.00
10304;DHT22;5197;48.152;8.590;2024-01-30T05:27:40;3.60;9.20
10304;DHT22;5197;48.152;8.590;2024-01-30T05:30:07;3.70;9.30
10304;DHT22;5197;48.152;8.590;2024-01-30T05:32:34;3.60;9.30
10304;DHT22;5197;48.152;8.590;2024-01-30T05:35:02;3.60;9.50
10304;DHT22;5197;48.152;8.590;2024-01-30T05:37:29;3.60;9.60
10304;DHT22;5197;48.152;8.590;2024-01-30T05:39:57;3.60;9.70
10304;DHT22;5197;48.152;8.590;2024-01-30T05:42:26;3.50;9.80
10304;DHT22;5197;48.152;8.590;2024-01-30T05:44:53;3.50;9.90
10304;DHT22;5197;48.152;8.590;2024-01-30T05:47:20;3.50;9.80
10304;DHT22;5197;48.152;8.590;2024-01-30T05:49:47;3.50;9.90
10304;DHT22;5197;48.152;8.590;2024-01-30T05:52:14;3.50;10.10
10304;DHT22;5197;48.152;8.590;2024-01-30T05:54:42;1.90;9.30
10304;DHT22;5197;48.152;8.590;2024-01-30T05:57:09;3.50;10.30
10304;DHT22;5197;48.152;8.590;2024-01-30T05:59:36;3.50;10.30
10304;DHT22;5197;48.152;8.590;2024-01-30T06:02:07;3.50;10.30
10304;DHT22;5197;48.152;8.590;2024-01-30T06:04:34;3.40;10.20
10304;DHT22;5197;48.152;8.590;2024-01-30T06:07:01;3.40;10.20
10304;DHT22;5197;48.152;8.590;2024-01-30T06:09:29;3.40;10.10
10304;DHT22;5197;48.152;8.590;2024-01-30T06:11:56;3.40;10.10
10304;DHT22;5197;48.152;8.590;2024-01-30T06:14:23;3.40;10.10
10304;DHT22;5197;48.152;8.590;2024-01-30T06:16:50;3.40;10.00
10304;DHT22;5197;48.152;8.590;2024-01-30T06:19:17;3.40;10.00
10304;DHT22;5197;48.152;8.590;2024-01-30T06:21:44;3.40;10.20
10304;DHT22;5197;48.152;8.590;2024-01-30T06:24:12;3.40;10.20
10304;DHT22;5197;48.152;8.590;2024-01-30T06:26:39;3.40;10.30
10304;DHT22;5197;48.152;8.590;2024-01-30T06:29:06;3.40;10.40
10304;DHT22;5197;48.152;8.590;2024-01-30T06:31:40;3.40;10.30
10304;DHT22;5197;48.152;8.590;2024-01-30T06:34:09;3.50;10.30
10304;DHT22;5197;48.152;8.590;2024-01-30T06:36:36;3.50;10.10
10304;DHT22;5197;48.152;8.590;2024-01-30T06:39:04;3.50;9.90
10304;DHT22;5197;48.152;8.590;2024-01-30T06:41:31;3.60;9.90
10304;DHT22;5197;48.152;8.590;2024-01-30T06:43:58;3.60;9.80
10304;DHT22;5197;48.152;8.590;2024-01-30T06:46:25;3.60;9.60
10304;DHT22;5197;48.152;8.590;2024-01-30T06:48:52;3.60;9.50
10304;DHT22;5197;48.152;8.590;2024-01-30T06:51:19;3.70;9.20
10304;DHT22;5197;48.152;8.590;2024-01-30T06:53:46;3.70;9.00
10304;DHT22;5197;48.152;8.590;2024-01-30T06:56:13;3.70;8.90
10304;DHT22;5197;48.152;8.590;2024-01-30T06:58:40;3.70;8.80
10304;DHT22;5197;48.152;8.590;2024-01-30T07:01:07;3.70;8.60
10304;DHT22;5197;48.152;8.590;2024-01-30T07:03:35;3.70;8.30
10304;DHT22;5197;48.152;8.590;2024-01-30T07:06:02;3.70;8.20
10304;DHT22;5197;48.152;8.590;2024-01-30T07:08:29;3.70;8.00
10304;DHT22;5197;48.152;8.590;2024-01-30T07:10:56;3.60;8.00
10304;DHT22;5197;48.152;8.590;2024-01-30T07:13:27;3.60;7.90
10304;DHT22;5197;48.152;8.590;2024-01-30T07:15:55;3.50;7.90
10304;DHT22;5197;48.152;8.590;2024-01-30T07:18:22;3.50;8.10
10304;DHT22;5197;48.152;8.590;2024-01-30T07:20:49;3.40;8.20
10304;DHT22;5197;48.152;8.590;2024-01-30T07:23:17;3.40;8.10
10304;DHT22;5197;48.152;8.590;2024-01-30T07:25:44;3.40;8.20
10304;DHT22;5197;48.152;8.590;2024-01-30T07:28:17;3.40;8.30
10304;DHT22;5197;48.152;8.590;2024-01-30T07:30:44;3.40;8.20
10304;DHT22;5197;48.152;8.590;2024-01-30T07:33:12;3.40;8.20
10304;DHT22;5197;48.152;8.590;2024-01-30T07:35:40;3.40;8.20
10304;DHT22;5197;48.152;8.590;2024-01-30T07:38:07;3.40;8.10
10304;DHT22;5197;48.152;8.590;2024-01-30T07:40:38;3.40;8.10
10304;DHT22;5197;48.152;8.590;2024-01-30T07:43:05;3.50;8.20
10304;DHT22;5197;48.152;8.590;2024-01-30T07:45:32;3.50;8.20
10304;DHT22;5197;48.152;8.590;2024-01-30T07:48:02;3.50;8.20
10304;DHT22;5197;48.152;8.590;2024-01-30T07:50:29;3.50;8.10
10304;DHT22;5197;48.152;8.590;2024-01-30T07:52:56;3.60;8.20
10304;DHT22;5197;48.152;8.590;2024-01-30T07:55:24;3.60;8.10
10304;DHT22;5197;48.152;8.590;2024-01-30T07:57:57;3.70;8.00
10304;DHT22;5197;48.152;8.590;2024-01-30T08:00:26;3.70;7.90
10304;DHT22;5197;48.152;8.590;2024-01-30T08:02:56;3.80;7.80
10304;DHT22;5197;48.152;8.590;2024-01-30T08:05:24;3.90;7.70
10304;DHT22;5197;48.152;8.590;2024-01-30T08:07:51;3.90;7.50
10304;DHT22;5197;48.152;8.590;2024-01-30T08:10:18;4.00;7.20
10304;DHT22;5197;48.152;8.590;2024-01-30T08:12:46;4.10;7.30
10304;DHT22;5197;48.152;8.590;2024-01-30T08:15:13;4.20;7.30
10304;DHT22;5197;48.152;8.590;2024-01-30T08:17:41;4.40;7.30
10304;DHT22;5197;48.152;8.590;2024-01-30T08:20:08;4.60;7.20
10304;DHT22;5197;48.152;8.590;2024-01-30T08:22:39;4.70;6.70
10304;DHT22;5197;48.152;8.590;2024-01-30T08:25:07;4.90;6.70
10304;DHT22;5197;48.152;8.590;2024-01-30T08:27:35;5.00;6.10
10304;DHT22;5197;48.152;8.590;2024-01-30T08:30:08;5.10;5.80
10304;DHT22;5197;48.152;8.590;2024-01-30T08:32:36;5.20;5.50
10304;DHT22;5197;48.152;8.590;2024-01-30T08:35:03;5.20;5.10
10304;DHT22;5197;48.152;8.590;2024-01-30T08:37:31;5.30;4.70
10304;DHT22;5197;48.152;8.590;2024-01-30T08:39:58;5.30;4.20
10304;DHT22;5197;48.152;8.590;2024-01-30T08:42:25;5.40;4.00
10304;DHT22;5197;48.152;8.590;2024-01-30T08:44:52;5.40;3.60
10304;DHT22;5197;48.152;8.590;2024-01-30T08:47:20;5.40;3.30
10304;DHT22;5197;48.152;8.590;2024-01-30T08:49:47;5.50;3.10
10304;DHT22;5197;48.152;8.590;2024-01-30T08:52:17;5.50;2.90
10304;DHT22;5197;48.152;8.590;2024-01-30T08:54:45;5.60;2.60
10304;DHT22;5197;48.152;8.590;2024-01-30T08:57:12;5.70;2.40
10304;DHT22;5197;48.152;8.590;2024-01-30T08:59:39;5.70;2.00
10304;DHT22;5197;48.152;8.590;2024-01-30T09:02:06;5.80;1.70
10304;DHT22;5197;48.152;8.590;2024-01-30T09:04:39;5.80;1.40
10304;DHT22;5197;48.152;8.590;2024-01-30T09:07:08;5.90;1.10
10304;DHT22;5197;48.152;8.590;2024-01-30T09:09:40;6.00;1.00
10304;DHT22;5197;48.152;8.590;2024-01-30T09:12:08;6.10;1.00
10304;DHT22;5197;48.152;8.590;2024-01-30T09:14:37;6.10;1.00
10304;DHT22;5197;48.152;8.590;2024-01-30T09:17:04;6.20;1.00
10304;DHT22;5197;48.152;8.590;2024-01-30T09:19:31;6.20;1.00
10304;DHT22;5197;48.152;8.590;2024-01-30T09:21:59;6.40;1.00
10304;DHT22;5197;48.152;8.590;2024-01-30T09:24:27;6.40;1.00
10304;DHT22;5197;48.152;8.590;2024-01-30T09:26:54;6.50;1.00
10304;DHT22;5197;48.152;8.590;2024-01-30T09:29:21;6.60;1.00
10304;DHT22;5197;48.152;8.590;2024-01-30T09:31:48;6.70;1.00
10304;DHT22;5197;48.152;8.590;2024-01-30T09:34:15;6.80;1.00
10304;DHT22;5197;48.152;8.590;2024-01-30T09:36:42;6.80;1.00
10304;DHT22;5197;48.152;8.590;2024-01-30T09:39:10;6.90;1.00
10304;DHT22;5197;48.152;8.590;2024-01-30T09:41:45;7.00;1.00
10304;DHT22;5197;48.152;8.590;2024-01-30T09:44:16;7.00;1.00
10304;DHT22;5197;48.152;8.590;2024-01-30T09:46:43;7.00;1.00
10304;DHT22;5197;48.152;8.590;2024-01-30T09:49:13;7.10;1.00
10304;DHT22;5197;48.152;8.590;2024-01-30T09:51:44;7.10;1.00
10304;DHT22;5197;48.152;8.590;2024-01-30T09:54:14;7.20;1.00
10304;DHT22;5197;48.152;8.590;2024-01-30T09:56:41;7.30;1.00
10304;DHT22;5197;48.152;8.590;2024-01-30T09:59:09;7.30;1.00
10304;DHT22;5197;48.152;8.590;2024-01-30T10:01:36;7.40;1.00
10304;DHT22;5197;48.152;8.590;2024-01-30T10:04:05;7.40;1.00
10304;DHT22;5197;48.152;8.590;2024-01-30T10:06:32;7.40;1.00
10304;DHT22;5197;48.152;8.590;2024-01-30T10:09:00;7.40;1.00
10304;DHT22;5197;48.152;8.590;2024-01-30T10:11:27;7.50;1.00
10304;DHT22;5197;48.152;8.590;2024-01-30T10:13:54;7.40;1.00
10304;DHT22;5197;48.152;8.590;2024-01-30T10:16:21;7.50;1.00
10304;DHT22;5197;48.152;8.590;2024-01-30T10:18:48;7.50;1.00
10304;DHT22;5197;48.152;8.590;2024-01-30T10:21:15;7.60;1.00
10304;DHT22;5197;48.152;8.590;2024-01-30T10:23:43;7.60;1.00
10304;DHT22;5197;48.152;8.590;2024-01-30T10:26:11;7.70;1.00
10304;DHT22;5197;48.152;8.590;2024-01-30T10:28:41;7.70;1.00
10304;DHT22;5197;48.152;8.590;2024-01-30T10:31:08;7.80;1.00
10304;DHT22;5197;48.152;8.590;2024-01-30T10:33:36;7.90;1.00
10304;DHT22;5197;48.152;8.590;2024-01-30T10:36:04;8.00;1.00
10304;DHT22;5197;48.152;8.590;2024-01-30T10:38:33;8.10;1.00
10304;DHT22;5197;48.152;8.590;2024-01-30T10:41:01;8.20;1.00
10304;DHT22;5197;48.152;8.590;2024-01-30T10:43:32;8.30;1.00
10304;DHT22;5197;48.152;8.590;2024-01-30T10:46:20;8.40;1.00
10304;DHT22;5197;48.152;8.590;2024-01-30T10:48:59;8.50;1.00
10304;DHT22;5197;48.152;8.590;2024-01-30T10:51:28;8.60;1.00
10304;DHT22;5197;48.152;8.590;2024-01-30T10:53:56;8.60;1.00
10304;DHT22;5197;48.152;8.590;2024-01-30T10:56:25;8.70;1.00
10304;DHT22;5197;48.152;8.590;2024-01-30T10:58:53;8.80;1.00
10304;DHT22;5197;48.152;8.590;2024-01-30T11:01:21;8.90;1.00
10304;DHT22;5197;48.152;8.590;2024-01-30T11:03:52;9.00;1.00
10304;DHT22;5197;48.152;8.590;2024-01-30T11:06:25;9.10;1.00
10304;DHT22;5197;48.152;8.590;2024-01-30T11:09:03;9.10;1.00
10304;DHT22;5197;48.152;8.590;2024-01-30T11:11:49;9.20;1.00
10304;DHT22;5197;48.152;8.590;2024-01-30T11:14:22;9.20;1.00
10304;DHT22;5197;48.152;8.590;2024-01-30T11:16:49;9.20;1.00
10304;DHT22;5197;48.152;8.590;2024-01-30T11:19:22;9.30;1.00
10304;DHT22;5197;48.152;8.590;2024-01-30T11:21:53;9.30;1.00
10304;DHT22;5197;48.152;8.590;2024-01-30T11:24:21;9.30;1.00
10304;DHT22;5197;48.152;8.590;2024-01-30T11:26:58;9.40;1.00
10304;DHT22;5197;48.152;8.590;2024-01-30T11:29:27;9.40;1.00
10304;DHT22;5197;48.152;8.590;2024-01-30T11:31:56;9.40;1.00
10304;DHT22;5197;48.152;8.590;2024-01-30T11:34:23;9.40;1.00
10304;DHT22;5197;48.152;8.590;2024-01-30T11:36:59;9.40;1.00
10304;DHT22;5197;48.152;8.590;2024-01-30T11:39:26;9.50;1.00
10304;DHT22;5197;48.152;8.590;2024-01-30T11:41:54;9.50;1.00
10304;DHT22;5197;48.152;8.590;2024-01-30T11:44:24;9.50;1.00
10304;DHT22;5197;48.152;8.590;2024-01-30T11:46:52;9.60;1.00
10304;DHT22;5197;48.152;8.590;2024-01-30T11:49:19;9.60;1.00
10304;DHT22;5197;48.152;8.590;2024-01-30T11:51:47;9.60;1.00
10304;DHT22;5197;48.152;8.590;2024-01-30T11:54:17;9.70;1.00
10304;DHT22;5197;48.152;8.590;2024-01-30T11:56:44;9.70;1.00
10304;DHT22;5197;48.152;8.590;2024-01-30T11:59:11;9.70;1.00
10304;DHT22;5197;48.152;8.590;2024-01-30T12:01:38;9.70;1.00
10304;DHT22;5197;48.152;8.590;2024-01-30T12:04:05;9.70;1.00
10304;DHT22;5197;48.152;8.590;2024-01-30T12:06:38;9.80;1.00
10304;DHT22;5197;48.152;8.590;2024-01-30T12:09:05;9.80;1.00
10304;DHT22;5197;48.152;8.590;2024-01-30T12:14:12;9.80;1.00
10304;DHT22;5197;48.152;8.590;2024-01-30T12:16:40;9.80;1.00
10304;DHT22;5197;48.152;8.590;2024-01-30T12:19:08;9.80;1.00
10304;DHT22;5197;48.152;8.590;2024-01-30T12:21:36;9.80;1.00
10304;DHT22;5197;48.152;8.590;2024-01-30T12:24:03;9.90;1.00
10304;DHT22;5197;48.152;8.590;2024-01-30T12:26:30;9.90;1.00
10304;DHT22;5197;48.152;8.590;2024-01-30T12:28:57;9.90;1.00
10304;DHT22;5197;48.152;8.590;2024-01-30T12:31:26;9.90;1.00
10304;DHT22;5197;48.152;8.590;2024-01-30T12:33:55;9.90;1.00
10304;DHT22;5197;48.152;8.590;2024-01-30T12:36:25;9.90;1.00
10304;DHT22;5197;48.152;8.590;2024-01-30T12:38:52;10.00;1.00
10304;DHT22;5197;48.152;8.590;2024-01-30T12:41:20;10.00;1.00
10304;DHT22;5197;48.152;8.590;2024-01-30T12:43:47;10.00;1.00
10304;DHT22;5197;48.152;8.590;2024-01-30T12:46:17;10.00;1.00
10304;DHT22;5197;48.152;8.590;2024-01-30T12:48:45;10.00;1.00
10304;DHT22;5197;48.152;8.590;2024-01-30T12:51:12;10.10;1.00
10304;DHT22;5197;48.152;8.590;2024-01-30T12:53:39;10.10;1.00
10304;DHT22;5197;48.152;8.590;2024-01-30T12:56:06;10.10;1.00
10304;DHT22;5197;48.152;8.590;2024-01-30T12:58:33;10.20;1.00
10304;DHT22;5197;48.152;8.590;2024-01-30T13:01:00;10.20;1.00
10304;DHT22;5197;48.152;8.590;2024-01-30T13:03:27;10.30;1.00
10304;DHT22;5197;48.152;8.590;2024-01-30T13:05:56;10.30;1.00
10304;DHT22;5197;48.152;8.590;2024-01-30T13:08:23;10.40;1.00
10304;DHT22;5197;48.152;8.590;2024-01-30T13:10:50;10.40;1.00
10304;DHT22;5197;48.152;8.590;2024-01-30T13:13:17;10.40;1.00
10304;DHT22;5197;48.152;8.590;2024-01-30T13:15:47;10.50;1.00
10304;DHT22;5197;48.152;8.590;2024-01-30T13:18:15;10.50;1.00
10304;DHT22;5197;48.152;8.590;2024-01-30T13:20:42;10.50;1.00
10304;DHT22;5197;48.152;8.590;2024-01-30T13:23:09;10.50;1.00
10304;DHT22;5197;48.152;8.590;2024-01-30T13:25:36;10.50;1.00
10304;DHT22;5197;48.152;8.590;2024-01-30T13:28:03;10.60;1.00
10304;DHT22;5197;48.152;8.590;2024-01-30T13:30:30;10.60;1.00
10304;DHT22;5197;48.152;8.590;2024-01-30T13:33:01;10.60;1.00
10304;DHT22;5197;48.152;8.590;2024-01-30T13:35:28;10.60;1.00
10304;DHT22;5197;48.152;8.590;2024-01-30T13:37:55;10.70;1.00
10304;DHT22;5197;48.152;8.590;2024-01-30T13:40:22;10.70;1.00
10304;DHT22;5197;48.152;8.590;2024-01-30T13:42:50;10.70;1.00
10304;DHT22;5197;48.152;8.590;2024-01-30T13:45:17;10.80;1.00
10304;DHT22;5197;48.152;8.590;2024-01-30T13:47:44;10.80;1.00
10304;DHT22;5197;48.152;8.590;2024-01-30T13:50:11;10.80;1.00
10304;DHT22;5197;48.152;8.590;2024-01-30T13:52:42;10.80;1.00
10304;DHT22;5197;48.152;8.590;2024-01-30T13:55:12;10.80;1.00
10304;DHT22;5197;48.152;8.590;2024-01-30T13:57:39;10.80;1.00
10304;DHT22;5197;48.152;8.590;2024-01-30T14:00:07;10.80;1.00
10304;DHT22;5197;48.152;8.590;2024-01-30T14:02:34;10.80;1.00
10304;DHT22;5197;48.152;8.590;2024-01-30T14:05:01;10.80;1.00
10304;DHT22;5197;48.152;8.590;2024-01-30T14:07:31;10.80;1.00
10304;DHT22;5197;48.152;8.590;2024-01-30T14:09:59;10.80;1.00
10304;DHT22;5197;48.152;8.590;2024-01-30T14:12:26;10.80;1.00
10304;DHT22;5197;48.152;8.590;2024-01-30T14:14:53;10.80;1.00
10304;DHT22;5197;48.152;8.590;2024-01-30T14:17:20;10.90;1.00
10304;DHT22;5197;48.152;8.590;2024-01-30T14:19:47;10.80;1.00
10304;DHT22;5197;48.152;8.590;2024-01-30T14:22:14;10.90;1.00
10304;DHT22;5197;48.152;8.590;2024-01-30T14:24:41;10.90;1.00
10304;DHT22;5197;48.152;8.590;2024-01-30T14:27:08;10.90;1.00
10304;DHT22;5197;48.152;8.590;2024-01-30T14:29:36;10.90;1.00
10304;DHT22;5197;48.152;8.590;2024-01-30T14:32:04;11.00;1.00
10304;DHT22;5197;48.152;8.590;2024-01-30T14:34:31;11.00;1.00
10304;DHT22;5197;48.152;8.590;2024-01-30T14:36:58;10.90;1.00
10304;DHT22;5197;48.152;8.590;2024-01-30T14:39:25;10.90;1.00
10304;DHT22;5197;48.152;8.590;2024-01-30T14:41:53;10.90;1.00
10304;DHT22;5197;48.152;8.590;2024-01-30T14:44:20;10.90;1.00
10304;DHT22;5197;48.152;8.590;2024-01-30T14:46:47;10.90;1.00
10304;DHT22;5197;48.152;8.590;2024-01-30T14:49:14;10.90;1.00
10304;DHT22;5197;48.152;8.590;2024-01-30T14:51:42;10.90;1.00
10304;DHT22;5197;48.152;8.590;2024-01-30T14:54:09;10.90;1.00
10304;DHT22;5197;48.152;8.590;2024-01-30T14:56:38;10.80;1.00
10304;DHT22;5197;48.152;8.590;2024-01-30T14:59:05;10.80;1.00
10304;DHT22;5197;48.152;8.590;2024-01-30T15:01:32;10.80;1.00
10304;DHT22;5197;48.152;8.590;2024-01-30T15:04:00;10.80;1.00
10304;DHT22;5197;48.152;8.590;2024-01-30T15:06:27;10.80;1.00
10304;DHT22;5197;48.152;8.590;2024-01-30T15:08:55;10.80;1.00
10304;DHT22;5197;48.152;8.590;2024-01-30T15:11:22;10.70;1.00
10304;DHT22;5197;48.152;8.590;2024-01-30T15:13:49;10.70;1.00
10304;DHT22;5197;48.152;8.590;2024-01-30T15:16:16;10.70;1.00
10304;DHT22;5197;48.152;8.590;2024-01-30T15:18:43;10.70;1.00
10304;DHT22;5197;48.152;8.590;2024-01-30T15:21:11;10.70;1.00
10304;DHT22;5197;48.152;8.590;2024-01-30T15:23:37;10.60;1.00
10304;DHT22;5197;48.152;8.590;2024-01-30T15:26:05;10.60;1.00
10304;DHT22;5197;48.152;8.590;2024-01-30T15:28:37;10.60;1.00
10304;DHT22;5197;48.152;8.590;2024-01-30T15:31:05;10.60;1.00
10304;DHT22;5197;48.152;8.590;2024-01-30T15:33:33;10.60;1.00
10304;DHT22;5197;48.152;8.590;2024-01-30T15:36:01;10.50;1.00
10304;DHT22;5197;48.152;8.590;2024-01-30T15:38:28;10.40;1.00
10304;DHT22;5197;48.152;8.590;2024-01-30T15:40:56;10.40;1.00
10304;DHT22;5197;48.152;8.590;2024-01-30T15:43:23;10.30;1.00
10304;DHT22;5197;48.152;8.590;2024-01-30T15:45:51;10.30;1.00
10304;DHT22;5197;48.152;8.590;2024-01-30T15:48:19;10.20;1.00
10304;DHT22;5197;48.152;8.590;2024-01-30T15:50:46;10.20;1.00
10304;DHT22;5197;48.152;8.590;2024-01-30T15:53:13;10.20;1.00
10304;DHT22;5197;48.152;8.590;2024-01-30T15:55:40;10.10;1.00
10304;DHT22;5197;48.152;8.590;2024-01-30T15:58:08;10.10;1.00
10304;DHT22;5197;48.152;8.590;2024-01-30T16:00:35;10.00;1.00
10304;DHT22;5197;48.152;8.590;2024-01-30T16:03:02;10.00;1.00
10304;DHT22;5197;48.152;8.590;2024-01-30T16:05:30;10.00;1.00
10304;DHT22;5197;48.152;8.590;2024-01-30T16:07:57;10.00;1.00
10304;DHT22;5197;48.152;8.590;2024-01-30T16:10:24;10.00;1.00
10304;DHT22;5197;48.152;8.590;2024-01-30T16:12:51;9.90;1.00
10304;DHT22;5197;48.152;8.590;2024-01-30T16:15:19;9.90;1.00
10304;DHT22;5197;48.152;8.590;2024-01-30T16:17:46;9.80;1.00
10304;DHT22;5197;48.152;8.590;2024-01-30T16:20:13;9.80;1.00